Atalaia Do Norte, Brazil
Current Conditions -  °F | °C
As of 9:00 PM on Friday 19 Dec 2014 (Local Time) from SKLT Reporting Station
Broken Clouds Broken Clouds  
Wind Chill: 79°   Ceiling: 8000
Heat Index: 83°   Visibility: 6mi
Dew Point: 77°   Wind: 0mph
Humidity: 94%   Direction: NA
Pressure: 29.77"   Gusts: NA
Location:  4.39°S, 70.21°W
Report Text: SKLT 200100Z 00000KT 9999 FEW013CB BKN080 26/25 A2977 RMK CB/E LTNG
Loading
Personal Weather Stations






























Interactive Weather Map New forecast layout! Learn more

10-Day Weather Forecast

Advertisements
Track Severe Weather on mobile